sensor_id;sensor_type;location;lat;lon;timestamp;P1;durP1;ratioP1;P2;durP2;ratioP2
74471;SDS011;62920;53.572;10.050;2023-07-24T00:01:16;4.70;;;2.55;;
74471;SDS011;62920;53.572;10.050;2023-07-24T00:03:43;3.80;;;2.20;;
74471;SDS011;62920;53.572;10.050;2023-07-24T00:06:09;7.03;;;2.22;;
74471;SDS011;62920;53.572;10.050;2023-07-24T00:08:34;4.75;;;2.60;;
74471;SDS011;62920;53.572;10.050;2023-07-24T00:10:59;4.75;;;2.53;;
74471;SDS011;62920;53.572;10.050;2023-07-24T00:13:25;3.88;;;2.30;;
74471;SDS011;62920;53.572;10.050;2023-07-24T00:15:50;5.88;;;2.60;;
74471;SDS011;62920;53.572;10.050;2023-07-24T00:18:16;6.43;;;2.53;;
74471;SDS011;62920;53.572;10.050;2023-07-24T00:20:41;5.00;;;2.38;;
74471;SDS011;62920;53.572;10.050;2023-07-24T00:23:07;4.35;;;2.42;;
74471;SDS011;62920;53.572;10.050;2023-07-24T00:25:32;4.30;;;2.22;;
74471;SDS011;62920;53.572;10.050;2023-07-24T00:27:58;5.20;;;2.45;;
74471;SDS011;62920;53.572;10.050;2023-07-24T00:30:23;4.70;;;2.88;;
74471;SDS011;62920;53.572;10.050;2023-07-24T00:32:48;4.90;;;2.40;;
74471;SDS011;62920;53.572;10.050;2023-07-24T00:35:14;4.35;;;2.33;;
74471;SDS011;62920;53.572;10.050;2023-07-24T00:37:39;4.90;;;2.50;;
74471;SDS011;62920;53.572;10.050;2023-07-24T00:40:05;4.32;;;2.42;;
74471;SDS011;62920;53.572;10.050;2023-07-24T00:42:31;4.55;;;2.53;;
74471;SDS011;62920;53.572;10.050;2023-07-24T00:44:56;5.30;;;2.63;;
74471;SDS011;62920;53.572;10.050;2023-07-24T00:47:22;3.78;;;1.98;;
74471;SDS011;62920;53.572;10.050;2023-07-24T00:49:48;6.07;;;2.42;;
74471;SDS011;62920;53.572;10.050;2023-07-24T00:52:14;4.63;;;2.13;;
74471;SDS011;62920;53.572;10.050;2023-07-24T00:54:39;4.50;;;2.33;;
74471;SDS011;62920;53.572;10.050;2023-07-24T00:57:05;4.30;;;2.65;;
74471;SDS011;62920;53.572;10.050;2023-07-24T00:59:31;4.00;;;2.90;;
74471;SDS011;62920;53.572;10.050;2023-07-24T01:01:57;4.60;;;2.58;;
74471;SDS011;62920;53.572;10.050;2023-07-24T01:04:22;5.20;;;2.45;;
74471;SDS011;62920;53.572;10.050;2023-07-24T01:06:48;3.85;;;2.10;;
74471;SDS011;62920;53.572;10.050;2023-07-24T01:09:13;5.45;;;2.70;;
74471;SDS011;62920;53.572;10.050;2023-07-24T01:11:50;4.78;;;2.42;;
74471;SDS011;62920;53.572;10.050;2023-07-24T01:14:24;5.03;;;2.85;;
74471;SDS011;62920;53.572;10.050;2023-07-24T01:16:54;5.93;;;2.30;;
74471;SDS011;62920;53.572;10.050;2023-07-24T01:19:35;4.93;;;2.67;;
74471;SDS011;62920;53.572;10.050;2023-07-24T01:27:46;5.43;;;2.40;;
74471;SDS011;62920;53.572;10.050;2023-07-24T01:30:13;6.63;;;2.60;;
74471;SDS011;62920;53.572;10.050;2023-07-24T01:32:42;6.15;;;2.70;;
74471;SDS011;62920;53.572;10.050;2023-07-24T01:35:07;6.43;;;2.65;;
74471;SDS011;62920;53.572;10.050;2023-07-24T01:37:33;6.25;;;2.65;;
74471;SDS011;62920;53.572;10.050;2023-07-24T01:39:59;6.35;;;2.60;;
74471;SDS011;62920;53.572;10.050;2023-07-24T01:42:25;5.18;;;2.47;;
74471;SDS011;62920;53.572;10.050;2023-07-24T01:44:54;5.30;;;2.80;;
74471;SDS011;62920;53.572;10.050;2023-07-24T01:47:20;5.30;;;3.03;;
74471;SDS011;62920;53.572;10.050;2023-07-24T01:49:46;4.13;;;2.47;;
74471;SDS011;62920;53.572;10.050;2023-07-24T01:52:11;4.15;;;2.22;;
74471;SDS011;62920;53.572;10.050;2023-07-24T01:54:37;6.05;;;2.55;;
74471;SDS011;62920;53.572;10.050;2023-07-24T01:57:02;5.30;;;2.83;;
74471;SDS011;62920;53.572;10.050;2023-07-24T01:59:28;7.00;;;2.58;;
74471;SDS011;62920;53.572;10.050;2023-07-24T02:01:53;5.88;;;2.75;;
74471;SDS011;62920;53.572;10.050;2023-07-24T02:04:18;4.47;;;2.50;;
74471;SDS011;62920;53.572;10.050;2023-07-24T02:06:47;4.95;;;2.78;;
74471;SDS011;62920;53.572;10.050;2023-07-24T02:11:38;6.20;;;2.83;;
74471;SDS011;62920;53.572;10.050;2023-07-24T02:14:04;5.28;;;2.70;;
74471;SDS011;62920;53.572;10.050;2023-07-24T02:16:29;5.65;;;2.95;;
74471;SDS011;62920;53.572;10.050;2023-07-24T02:18:54;4.93;;;2.58;;
74471;SDS011;62920;53.572;10.050;2023-07-24T02:21:20;5.22;;;3.00;;
74471;SDS011;62920;53.572;10.050;2023-07-24T02:23:45;7.85;;;3.05;;
74471;SDS011;62920;53.572;10.050;2023-07-24T02:26:10;12.80;;;3.50;;
74471;SDS011;62920;53.572;10.050;2023-07-24T02:28:36;5.18;;;3.05;;
74471;SDS011;62920;53.572;10.050;2023-07-24T02:31:01;5.75;;;3.20;;
74471;SDS011;62920;53.572;10.050;2023-07-24T02:33:27;5.38;;;3.05;;
74471;SDS011;62920;53.572;10.050;2023-07-24T02:35:52;5.75;;;3.15;;
74471;SDS011;62920;53.572;10.050;2023-07-24T02:38:18;5.70;;;3.13;;
74471;SDS011;62920;53.572;10.050;2023-07-24T02:40:44;7.03;;;3.75;;
74471;SDS011;62920;53.572;10.050;2023-07-24T02:43:09;6.60;;;3.80;;
74471;SDS011;62920;53.572;10.050;2023-07-24T02:45:35;8.18;;;3.42;;
74471;SDS011;62920;53.572;10.050;2023-07-24T02:48:01;6.60;;;3.45;;
74471;SDS011;62920;53.572;10.050;2023-07-24T02:50:27;6.70;;;3.13;;
74471;SDS011;62920;53.572;10.050;2023-07-24T02:52:53;6.63;;;3.72;;
74471;SDS011;62920;53.572;10.050;2023-07-24T02:55:18;5.30;;;3.30;;
74471;SDS011;62920;53.572;10.050;2023-07-24T02:57:43;6.75;;;3.53;;
74471;SDS011;62920;53.572;10.050;2023-07-24T03:00:09;8.05;;;3.30;;
74471;SDS011;62920;53.572;10.050;2023-07-24T03:02:35;5.70;;;3.35;;
74471;SDS011;62920;53.572;10.050;2023-07-24T03:05:00;5.93;;;3.42;;
74471;SDS011;62920;53.572;10.050;2023-07-24T03:07:25;6.50;;;3.60;;
74471;SDS011;62920;53.572;10.050;2023-07-24T03:09:51;6.88;;;3.50;;
74471;SDS011;62920;53.572;10.050;2023-07-24T03:12:16;5.60;;;3.08;;
74471;SDS011;62920;53.572;10.050;2023-07-24T03:14:42;5.97;;;3.05;;
74471;SDS011;62920;53.572;10.050;2023-07-24T03:17:07;8.90;;;3.30;;
74471;SDS011;62920;53.572;10.050;2023-07-24T03:19:32;10.27;;;3.33;;
74471;SDS011;62920;53.572;10.050;2023-07-24T03:21:58;5.20;;;2.75;;
74471;SDS011;62920;53.572;10.050;2023-07-24T03:24:23;6.68;;;3.25;;
74471;SDS011;62920;53.572;10.050;2023-07-24T03:26:49;6.13;;;3.15;;
74471;SDS011;62920;53.572;10.050;2023-07-24T03:29:14;5.43;;;3.47;;
74471;SDS011;62920;53.572;10.050;2023-07-24T03:31:39;5.65;;;3.33;;
74471;SDS011;62920;53.572;10.050;2023-07-24T03:34:05;5.57;;;3.30;;
74471;SDS011;62920;53.572;10.050;2023-07-24T03:36:30;5.78;;;3.15;;
74471;SDS011;62920;53.572;10.050;2023-07-24T03:38:55;5.90;;;3.10;;
74471;SDS011;62920;53.572;10.050;2023-07-24T03:41:21;6.38;;;3.00;;
74471;SDS011;62920;53.572;10.050;2023-07-24T03:43:46;6.45;;;3.33;;
74471;SDS011;62920;53.572;10.050;2023-07-24T03:46:11;5.80;;;3.25;;
74471;SDS011;62920;53.572;10.050;2023-07-24T03:48:37;6.63;;;3.55;;
74471;SDS011;62920;53.572;10.050;2023-07-24T03:51:02;5.55;;;3.03;;
74471;SDS011;62920;53.572;10.050;2023-07-24T03:53:28;5.28;;;3.20;;
74471;SDS011;62920;53.572;10.050;2023-07-24T03:55:53;5.00;;;2.78;;
74471;SDS011;62920;53.572;10.050;2023-07-24T03:58:19;6.43;;;3.47;;
74471;SDS011;62920;53.572;10.050;2023-07-24T04:00:45;6.97;;;3.38;;
74471;SDS011;62920;53.572;10.050;2023-07-24T04:03:11;5.55;;;3.08;;
74471;SDS011;62920;53.572;10.050;2023-07-24T04:05:36;8.07;;;3.50;;
74471;SDS011;62920;53.572;10.050;2023-07-24T04:08:02;5.05;;;3.08;;
74471;SDS011;62920;53.572;10.050;2023-07-24T04:10:28;5.85;;;3.10;;
74471;SDS011;62920;53.572;10.050;2023-07-24T04:12:53;5.25;;;2.95;;
74471;SDS011;62920;53.572;10.050;2023-07-24T04:15:19;9.10;;;3.63;;
74471;SDS011;62920;53.572;10.050;2023-07-24T04:17:44;7.40;;;3.50;;
74471;SDS011;62920;53.572;10.050;2023-07-24T04:20:10;6.30;;;3.28;;
74471;SDS011;62920;53.572;10.050;2023-07-24T04:22:35;6.85;;;3.63;;
74471;SDS011;62920;53.572;10.050;2023-07-24T04:25:02;6.75;;;3.45;;
74471;SDS011;62920;53.572;10.050;2023-07-24T04:27:27;6.25;;;3.83;;
74471;SDS011;62920;53.572;10.050;2023-07-24T04:29:53;7.05;;;3.78;;
74471;SDS011;62920;53.572;10.050;2023-07-24T04:32:18;7.00;;;3.72;;
74471;SDS011;62920;53.572;10.050;2023-07-24T04:34:44;7.68;;;3.15;;
74471;SDS011;62920;53.572;10.050;2023-07-24T04:37:09;6.65;;;3.85;;
74471;SDS011;62920;53.572;10.050;2023-07-24T04:39:34;6.32;;;3.65;;
74471;SDS011;62920;53.572;10.050;2023-07-24T04:42:00;7.40;;;3.70;;
74471;SDS011;62920;53.572;10.050;2023-07-24T04:44:25;6.63;;;3.85;;
74471;SDS011;62920;53.572;10.050;2023-07-24T04:46:50;6.72;;;3.60;;
74471;SDS011;62920;53.572;10.050;2023-07-24T04:49:16;6.68;;;3.72;;
74471;SDS011;62920;53.572;10.050;2023-07-24T04:51:41;5.70;;;3.53;;
74471;SDS011;62920;53.572;10.050;2023-07-24T04:54:07;7.57;;;3.55;;
74471;SDS011;62920;53.572;10.050;2023-07-24T04:56:32;8.57;;;3.75;;
74471;SDS011;62920;53.572;10.050;2023-07-24T04:58:57;6.75;;;3.47;;
74471;SDS011;62920;53.572;10.050;2023-07-24T05:01:23;8.77;;;3.97;;
74471;SDS011;62920;53.572;10.050;2023-07-24T05:03:48;7.25;;;3.78;;
74471;SDS011;62920;53.572;10.050;2023-07-24T05:06:14;6.60;;;4.10;;
74471;SDS011;62920;53.572;10.050;2023-07-24T05:08:39;7.18;;;3.90;;
74471;SDS011;62920;53.572;10.050;2023-07-24T05:11:04;9.18;;;4.30;;
74471;SDS011;62920;53.572;10.050;2023-07-24T05:13:30;7.47;;;3.88;;
74471;SDS011;62920;53.572;10.050;2023-07-24T05:15:55;6.10;;;3.30;;
74471;SDS011;62920;53.572;10.050;2023-07-24T05:18:20;6.18;;;3.47;;
74471;SDS011;62920;53.572;10.050;2023-07-24T05:20:46;8.23;;;3.95;;
74471;SDS011;62920;53.572;10.050;2023-07-24T05:23:12;7.20;;;3.90;;
74471;SDS011;62920;53.572;10.050;2023-07-24T05:25:38;7.95;;;3.97;;
74471;SDS011;62920;53.572;10.050;2023-07-24T05:28:03;7.65;;;3.92;;
74471;SDS011;62920;53.572;10.050;2023-07-24T05:30:29;9.52;;;3.97;;
74471;SDS011;62920;53.572;10.050;2023-07-24T05:32:54;6.53;;;3.17;;
74471;SDS011;62920;53.572;10.050;2023-07-24T05:35:20;5.97;;;3.63;;
74471;SDS011;62920;53.572;10.050;2023-07-24T05:37:45;7.65;;;3.50;;
74471;SDS011;62920;53.572;10.050;2023-07-24T05:40:10;6.38;;;3.50;;
74471;SDS011;62920;53.572;10.050;2023-07-24T05:42:36;7.38;;;3.50;;
74471;SDS011;62920;53.572;10.050;2023-07-24T05:45:06;6.13;;;3.70;;
74471;SDS011;62920;53.572;10.050;2023-07-24T05:49:58;6.45;;;3.15;;
74471;SDS011;62920;53.572;10.050;2023-07-24T05:52:23;5.82;;;3.03;;
74471;SDS011;62920;53.572;10.050;2023-07-24T05:54:48;6.15;;;3.40;;
74471;SDS011;62920;53.572;10.050;2023-07-24T05:57:14;5.70;;;3.47;;
74471;SDS011;62920;53.572;10.050;2023-07-24T05:59:39;6.05;;;3.47;;
74471;SDS011;62920;53.572;10.050;2023-07-24T06:02:05;6.05;;;3.42;;
74471;SDS011;62920;53.572;10.050;2023-07-24T06:04:30;9.23;;;3.60;;
74471;SDS011;62920;53.572;10.050;2023-07-24T06:06:56;7.78;;;3.58;;
74471;SDS011;62920;53.572;10.050;2023-07-24T06:09:21;7.45;;;4.18;;
74471;SDS011;62920;53.572;10.050;2023-07-24T06:11:47;8.27;;;3.75;;
74471;SDS011;62920;53.572;10.050;2023-07-24T06:14:12;5.25;;;3.33;;
74471;SDS011;62920;53.572;10.050;2023-07-24T06:16:37;5.45;;;3.35;;
74471;SDS011;62920;53.572;10.050;2023-07-24T06:19:03;5.85;;;3.38;;
74471;SDS011;62920;53.572;10.050;2023-07-24T06:21:28;6.45;;;3.25;;
74471;SDS011;62920;53.572;10.050;2023-07-24T06:23:54;5.82;;;3.40;;
74471;SDS011;62920;53.572;10.050;2023-07-24T06:26:19;6.80;;;3.22;;
74471;SDS011;62920;53.572;10.050;2023-07-24T06:28:45;6.03;;;3.50;;
74471;SDS011;62920;53.572;10.050;2023-07-24T06:31:10;5.97;;;3.65;;
74471;SDS011;62920;53.572;10.050;2023-07-24T06:33:35;6.30;;;3.55;;
74471;SDS011;62920;53.572;10.050;2023-07-24T06:36:01;7.82;;;3.97;;
74471;SDS011;62920;53.572;10.050;2023-07-24T06:38:26;6.80;;;3.90;;
74471;SDS011;62920;53.572;10.050;2023-07-24T06:40:51;6.40;;;3.58;;
74471;SDS011;62920;53.572;10.050;2023-07-24T06:43:17;7.60;;;3.85;;
74471;SDS011;62920;53.572;10.050;2023-07-24T06:45:42;7.03;;;3.60;;
74471;SDS011;62920;53.572;10.050;2023-07-24T06:48:08;6.90;;;3.75;;
74471;SDS011;62920;53.572;10.050;2023-07-24T06:50:33;6.47;;;3.03;;
74471;SDS011;62920;53.572;10.050;2023-07-24T06:52:58;6.95;;;3.72;;
74471;SDS011;62920;53.572;10.050;2023-07-24T06:55:24;6.28;;;3.50;;
74471;SDS011;62920;53.572;10.050;2023-07-24T06:57:49;5.78;;;3.67;;
74471;SDS011;62920;53.572;10.050;2023-07-24T07:00:15;9.35;;;4.18;;
74471;SDS011;62920;53.572;10.050;2023-07-24T07:02:40;8.10;;;4.30;;
74471;SDS011;62920;53.572;10.050;2023-07-24T07:05:06;6.50;;;4.18;;
74471;SDS011;62920;53.572;10.050;2023-07-24T07:07:31;7.40;;;4.13;;
74471;SDS011;62920;53.572;10.050;2023-07-24T07:09:57;6.97;;;4.70;;
74471;SDS011;62920;53.572;10.050;2023-07-24T07:12:22;5.88;;;4.15;;
74471;SDS011;62920;53.572;10.050;2023-07-24T07:14:48;6.18;;;4.05;;
74471;SDS011;62920;53.572;10.050;2023-07-24T07:17:13;6.38;;;3.95;;
74471;SDS011;62920;53.572;10.050;2023-07-24T07:19:39;9.88;;;4.40;;
74471;SDS011;62920;53.572;10.050;2023-07-24T07:22:05;7.70;;;4.03;;
74471;SDS011;62920;53.572;10.050;2023-07-24T07:26:56;7.00;;;3.77;;
74471;SDS011;62920;53.572;10.050;2023-07-24T07:29:21;6.63;;;4.00;;
74471;SDS011;62920;53.572;10.050;2023-07-24T07:31:46;7.05;;;4.45;;
74471;SDS011;62920;53.572;10.050;2023-07-24T07:34:12;9.40;;;4.22;;
74471;SDS011;62920;53.572;10.050;2023-07-24T07:36:37;7.25;;;4.05;;
74471;SDS011;62920;53.572;10.050;2023-07-24T07:39:03;7.68;;;3.85;;
74471;SDS011;62920;53.572;10.050;2023-07-24T07:41:28;7.15;;;3.55;;
74471;SDS011;62920;53.572;10.050;2023-07-24T07:43:54;5.55;;;3.38;;
74471;SDS011;62920;53.572;10.050;2023-07-24T07:46:19;7.00;;;3.40;;
74471;SDS011;62920;53.572;10.050;2023-07-24T07:48:45;5.57;;;3.78;;
74471;SDS011;62920;53.572;10.050;2023-07-24T07:53:37;6.32;;;3.55;;
74471;SDS011;62920;53.572;10.050;2023-07-24T07:56:03;7.25;;;3.97;;
74471;SDS011;62920;53.572;10.050;2023-07-24T07:58:28;6.43;;;3.67;;
74471;SDS011;62920;53.572;10.050;2023-07-24T08:00:54;7.35;;;3.83;;
74471;SDS011;62920;53.572;10.050;2023-07-24T08:03:19;7.93;;;3.83;;
74471;SDS011;62920;53.572;10.050;2023-07-24T08:05:45;7.43;;;4.05;;
74471;SDS011;62920;53.572;10.050;2023-07-24T08:08:10;7.22;;;4.63;;
74471;SDS011;62920;53.572;10.050;2023-07-24T08:10:39;8.07;;;4.70;;
74471;SDS011;62920;53.572;10.050;2023-07-24T08:13:05;7.30;;;4.18;;
74471;SDS011;62920;53.572;10.050;2023-07-24T08:15:36;7.63;;;3.92;;
74471;SDS011;62920;53.572;10.050;2023-07-24T08:18:02;6.28;;;3.67;;
74471;SDS011;62920;53.572;10.050;2023-07-24T08:20:29;5.95;;;4.03;;
74471;SDS011;62920;53.572;10.050;2023-07-24T08:22:54;7.05;;;4.22;;
74471;SDS011;62920;53.572;10.050;2023-07-24T08:25:20;7.82;;;4.15;;
74471;SDS011;62920;53.572;10.050;2023-07-24T08:27:45;7.50;;;4.85;;
74471;SDS011;62920;53.572;10.050;2023-07-24T08:30:11;7.10;;;5.32;;
74471;SDS011;62920;53.572;10.050;2023-07-24T08:32:36;9.13;;;4.63;;
74471;SDS011;62920;53.572;10.050;2023-07-24T08:35:02;7.80;;;4.63;;
74471;SDS011;62920;53.572;10.050;2023-07-24T08:37:27;7.75;;;5.03;;
74471;SDS011;62920;53.572;10.050;2023-07-24T08:39:53;7.15;;;4.38;;
74471;SDS011;62920;53.572;10.050;2023-07-24T08:42:18;8.23;;;4.63;;
74471;SDS011;62920;53.572;10.050;2023-07-24T08:44:45;7.00;;;4.65;;
74471;SDS011;62920;53.572;10.050;2023-07-24T08:47:10;7.57;;;4.75;;
74471;SDS011;62920;53.572;10.050;2023-07-24T08:49:39;6.07;;;4.32;;
74471;SDS011;62920;53.572;10.050;2023-07-24T08:52:07;7.50;;;4.50;;
74471;SDS011;62920;53.572;10.050;2023-07-24T08:54:35;7.72;;;4.60;;
74471;SDS011;62920;53.572;10.050;2023-07-24T08:57:01;7.45;;;4.53;;
74471;SDS011;62920;53.572;10.050;2023-07-24T08:59:27;7.88;;;5.38;;
74471;SDS011;62920;53.572;10.050;2023-07-24T09:01:54;6.95;;;4.47;;
74471;SDS011;62920;53.572;10.050;2023-07-24T09:04:20;6.75;;;4.15;;
74471;SDS011;62920;53.572;10.050;2023-07-24T09:06:45;7.43;;;4.43;;
74471;SDS011;62920;53.572;10.050;2023-07-24T09:09:14;9.25;;;5.03;;
74471;SDS011;62920;53.572;10.050;2023-07-24T09:11:47;9.50;;;5.30;;
74471;SDS011;62920;53.572;10.050;2023-07-24T09:14:20;9.13;;;5.15;;
74471;SDS011;62920;53.572;10.050;2023-07-24T09:16:49;7.90;;;5.38;;
74471;SDS011;62920;53.572;10.050;2023-07-24T09:19:21;6.85;;;4.80;;
74471;SDS011;62920;53.572;10.050;2023-07-24T09:21:46;7.68;;;5.05;;
74471;SDS011;62920;53.572;10.050;2023-07-24T09:24:12;8.68;;;5.22;;
74471;SDS011;62920;53.572;10.050;2023-07-24T09:26:48;7.07;;;4.82;;
74471;SDS011;62920;53.572;10.050;2023-07-24T09:29:15;10.68;;;5.10;;
74471;SDS011;62920;53.572;10.050;2023-07-24T09:31:40;8.13;;;5.32;;
74471;SDS011;62920;53.572;10.050;2023-07-24T09:34:13;9.55;;;5.50;;
74471;SDS011;62920;53.572;10.050;2023-07-24T09:36:39;6.88;;;5.15;;
74471;SDS011;62920;53.572;10.050;2023-07-24T09:39:05;7.88;;;5.00;;
74471;SDS011;62920;53.572;10.050;2023-07-24T09:41:31;7.68;;;4.75;;
74471;SDS011;62920;53.572;10.050;2023-07-24T09:44:00;7.13;;;5.03;;
74471;SDS011;62920;53.572;10.050;2023-07-24T09:46:25;9.73;;;5.40;;
74471;SDS011;62920;53.572;10.050;2023-07-24T09:48:53;7.53;;;4.78;;
74471;SDS011;62920;53.572;10.050;2023-07-24T09:51:18;9.00;;;5.03;;
74471;SDS011;62920;53.572;10.050;2023-07-24T09:53:51;8.05;;;5.32;;
74471;SDS011;62920;53.572;10.050;2023-07-24T09:56:19;7.38;;;4.82;;
74471;SDS011;62920;53.572;10.050;2023-07-24T09:58:45;7.57;;;4.45;;
74471;SDS011;62920;53.572;10.050;2023-07-24T10:01:11;9.82;;;4.70;;
74471;SDS011;62920;53.572;10.050;2023-07-24T10:03:40;6.95;;;4.70;;
74471;SDS011;62920;53.572;10.050;2023-07-24T10:06:08;8.65;;;4.25;;
74471;SDS011;62920;53.572;10.050;2023-07-24T10:08:37;6.35;;;4.40;;
74471;SDS011;62920;53.572;10.050;2023-07-24T10:11:04;6.93;;;4.25;;
74471;SDS011;62920;53.572;10.050;2023-07-24T10:13:29;7.70;;;4.50;;
74471;SDS011;62920;53.572;10.050;2023-07-24T10:15:55;7.45;;;4.80;;
74471;SDS011;62920;53.572;10.050;2023-07-24T10:18:25;7.57;;;4.60;;
74471;SDS011;62920;53.572;10.050;2023-07-24T10:20:59;6.20;;;4.32;;
74471;SDS011;62920;53.572;10.050;2023-07-24T10:23:26;6.68;;;4.53;;
74471;SDS011;62920;53.572;10.050;2023-07-24T10:25:51;7.40;;;4.80;;
74471;SDS011;62920;53.572;10.050;2023-07-24T10:28:17;6.75;;;4.45;;
74471;SDS011;62920;53.572;10.050;2023-07-24T10:30:43;7.45;;;4.55;;
74471;SDS011;62920;53.572;10.050;2023-07-24T10:33:19;6.72;;;4.70;;
74471;SDS011;62920;53.572;10.050;2023-07-24T10:35:55;7.18;;;4.57;;
74471;SDS011;62920;53.572;10.050;2023-07-24T10:38:36;6.00;;;4.22;;
74471;SDS011;62920;53.572;10.050;2023-07-24T10:41:03;8.57;;;4.45;;
74471;SDS011;62920;53.572;10.050;2023-07-24T10:43:39;7.85;;;4.30;;
74471;SDS011;62920;53.572;10.050;2023-07-24T10:46:11;8.45;;;4.15;;
74471;SDS011;62920;53.572;10.050;2023-07-24T10:48:37;6.43;;;3.90;;
74471;SDS011;62920;53.572;10.050;2023-07-24T10:51:08;7.40;;;4.20;;
74471;SDS011;62920;53.572;10.050;2023-07-24T10:53:34;7.78;;;4.22;;
74471;SDS011;62920;53.572;10.050;2023-07-24T10:56:03;7.55;;;4.00;;
74471;SDS011;62920;53.572;10.050;2023-07-24T10:58:30;6.97;;;4.20;;
74471;SDS011;62920;53.572;10.050;2023-07-24T11:00:56;6.25;;;4.00;;
74471;SDS011;62920;53.572;10.050;2023-07-24T11:03:22;9.45;;;4.13;;
74471;SDS011;62920;53.572;10.050;2023-07-24T11:05:48;5.03;;;3.60;;
74471;SDS011;62920;53.572;10.050;2023-07-24T11:08:15;8.18;;;4.30;;
74471;SDS011;62920;53.572;10.050;2023-07-24T11:10:51;6.50;;;4.40;;
74471;SDS011;62920;53.572;10.050;2023-07-24T11:13:19;6.10;;;4.22;;
74471;SDS011;62920;53.572;10.050;2023-07-24T11:15:48;7.10;;;4.13;;
74471;SDS011;62920;53.572;10.050;2023-07-24T11:18:15;7.72;;;3.95;;
74471;SDS011;62920;53.572;10.050;2023-07-24T11:20:45;5.90;;;3.65;;
74471;SDS011;62920;53.572;10.050;2023-07-24T11:23:17;6.93;;;3.33;;
74471;SDS011;62920;53.572;10.050;2023-07-24T11:25:43;6.78;;;4.00;;
74471;SDS011;62920;53.572;10.050;2023-07-24T11:28:09;6.20;;;3.92;;
74471;SDS011;62920;53.572;10.050;2023-07-24T11:30:35;6.05;;;3.90;;
74471;SDS011;62920;53.572;10.050;2023-07-24T11:33:02;7.78;;;4.05;;
74471;SDS011;62920;53.572;10.050;2023-07-24T11:35:30;6.20;;;3.58;;
74471;SDS011;62920;53.572;10.050;2023-07-24T11:37:55;5.93;;;3.63;;
74471;SDS011;62920;53.572;10.050;2023-07-24T11:40:21;5.78;;;3.55;;
74471;SDS011;62920;53.572;10.050;2023-07-24T11:42:47;5.68;;;3.63;;
74471;SDS011;62920;53.572;10.050;2023-07-24T11:45:13;6.28;;;3.85;;
74471;SDS011;62920;53.572;10.050;2023-07-24T11:47:43;5.45;;;3.92;;
74471;SDS011;62920;53.572;10.050;2023-07-24T11:50:09;7.07;;;3.50;;
74471;SDS011;62920;53.572;10.050;2023-07-24T11:52:53;6.15;;;3.95;;
74471;SDS011;62920;53.572;10.050;2023-07-24T11:55:20;6.50;;;3.60;;
74471;SDS011;62920;53.572;10.050;2023-07-24T11:57:57;6.00;;;3.55;;
74471;SDS011;62920;53.572;10.050;2023-07-24T12:00:22;5.53;;;3.63;;
74471;SDS011;62920;53.572;10.050;2023-07-24T12:02:48;5.00;;;3.58;;
74471;SDS011;62920;53.572;10.050;2023-07-24T12:05:13;5.15;;;3.60;;
74471;SDS011;62920;53.572;10.050;2023-07-24T12:07:39;5.32;;;3.45;;
74471;SDS011;62920;53.572;10.050;2023-07-24T12:10:09;5.25;;;3.90;;
74471;SDS011;62920;53.572;10.050;2023-07-24T12:12:44;6.82;;;3.78;;
74471;SDS011;62920;53.572;10.050;2023-07-24T12:15:13;6.15;;;3.53;;
74471;SDS011;62920;53.572;10.050;2023-07-24T12:17:39;6.82;;;4.18;;
74471;SDS011;62920;53.572;10.050;2023-07-24T12:22:33;6.78;;;3.55;;
74471;SDS011;62920;53.572;10.050;2023-07-24T12:24:58;5.15;;;3.60;;
74471;SDS011;62920;53.572;10.050;2023-07-24T12:27:24;6.72;;;3.80;;
74471;SDS011;62920;53.572;10.050;2023-07-24T12:29:50;6.53;;;3.50;;
74471;SDS011;62920;53.572;10.050;2023-07-24T12:32:16;8.20;;;4.05;;
74471;SDS011;62920;53.572;10.050;2023-07-24T12:34:42;5.30;;;3.80;;
74471;SDS011;62920;53.572;10.050;2023-07-24T12:37:07;6.22;;;3.50;;
74471;SDS011;62920;53.572;10.050;2023-07-24T12:39:32;5.45;;;3.53;;
74471;SDS011;62920;53.572;10.050;2023-07-24T12:41:58;5.78;;;3.78;;
74471;SDS011;62920;53.572;10.050;2023-07-24T12:44:23;5.22;;;3.50;;
74471;SDS011;62920;53.572;10.050;2023-07-24T12:46:48;5.97;;;4.28;;
74471;SDS011;62920;53.572;10.050;2023-07-24T12:49:14;5.68;;;3.72;;
74471;SDS011;62920;53.572;10.050;2023-07-24T12:51:39;5.20;;;3.53;;
74471;SDS011;62920;53.572;10.050;2023-07-24T12:54:04;5.22;;;3.60;;
74471;SDS011;62920;53.572;10.050;2023-07-24T12:56:30;5.28;;;3.65;;
74471;SDS011;62920;53.572;10.050;2023-07-24T12:58:55;6.20;;;3.42;;
74471;SDS011;62920;53.572;10.050;2023-07-24T13:01:21;5.47;;;3.63;;
74471;SDS011;62920;53.572;10.050;2023-07-24T13:03:46;6.57;;;3.90;;
74471;SDS011;62920;53.572;10.050;2023-07-24T13:06:11;5.55;;;3.65;;
74471;SDS011;62920;53.572;10.050;2023-07-24T13:08:37;8.73;;;3.83;;
74471;SDS011;62920;53.572;10.050;2023-07-24T13:11:02;5.05;;;3.33;;
74471;SDS011;62920;53.572;10.050;2023-07-24T13:13:28;5.47;;;3.30;;
74471;SDS011;62920;53.572;10.050;2023-07-24T13:15:53;4.60;;;2.90;;
74471;SDS011;62920;53.572;10.050;2023-07-24T13:18:18;4.90;;;3.38;;
74471;SDS011;62920;53.572;10.050;2023-07-24T13:23:10;4.15;;;2.92;;
74471;SDS011;62920;53.572;10.050;2023-07-24T13:25:35;4.78;;;2.90;;
74471;SDS011;62920;53.572;10.050;2023-07-24T13:28:01;4.55;;;2.90;;
74471;SDS011;62920;53.572;10.050;2023-07-24T13:30:26;5.05;;;3.25;;
74471;SDS011;62920;53.572;10.050;2023-07-24T13:32:51;7.35;;;3.50;;
74471;SDS011;62920;53.572;10.050;2023-07-24T13:35:18;5.43;;;3.28;;
74471;SDS011;62920;53.572;10.050;2023-07-24T13:37:44;5.35;;;3.53;;
74471;SDS011;62920;53.572;10.050;2023-07-24T13:40:09;5.25;;;2.80;;
74471;SDS011;62920;53.572;10.050;2023-07-24T13:42:35;4.72;;;2.97;;
74471;SDS011;62920;53.572;10.050;2023-07-24T13:45:00;5.07;;;3.15;;
74471;SDS011;62920;53.572;10.050;2023-07-24T13:47:25;4.43;;;2.90;;
74471;SDS011;62920;53.572;10.050;2023-07-24T13:49:51;6.25;;;2.90;;
74471;SDS011;62920;53.572;10.050;2023-07-24T13:52:16;5.43;;;3.10;;
74471;SDS011;62920;53.572;10.050;2023-07-24T13:54:42;6.10;;;2.97;;
74471;SDS011;62920;53.572;10.050;2023-07-24T13:57:07;6.78;;;3.10;;
74471;SDS011;62920;53.572;10.050;2023-07-24T13:59:34;4.32;;;2.95;;
74471;SDS011;62920;53.572;10.050;2023-07-24T14:01:59;6.55;;;3.10;;
74471;SDS011;62920;53.572;10.050;2023-07-24T14:04:25;4.35;;;2.90;;
74471;SDS011;62920;53.572;10.050;2023-07-24T14:06:50;5.57;;;2.85;;
74471;SDS011;62920;53.572;10.050;2023-07-24T14:09:15;5.22;;;2.83;;
74471;SDS011;62920;53.572;10.050;2023-07-24T14:11:41;5.68;;;3.10;;
74471;SDS011;62920;53.572;10.050;2023-07-24T14:14:06;4.78;;;3.03;;
74471;SDS011;62920;53.572;10.050;2023-07-24T14:16:32;5.22;;;3.38;;
74471;SDS011;62920;53.572;10.050;2023-07-24T14:18:57;4.95;;;3.00;;
74471;SDS011;62920;53.572;10.050;2023-07-24T14:21:22;5.35;;;3.15;;
74471;SDS011;62920;53.572;10.050;2023-07-24T14:23:48;5.55;;;3.00;;
74471;SDS011;62920;53.572;10.050;2023-07-24T14:26:13;6.55;;;2.90;;
74471;SDS011;62920;53.572;10.050;2023-07-24T14:28:38;4.32;;;2.90;;
74471;SDS011;62920;53.572;10.050;2023-07-24T14:31:04;5.78;;;2.85;;
74471;SDS011;62920;53.572;10.050;2023-07-24T14:33:30;4.63;;;2.92;;
74471;SDS011;62920;53.572;10.050;2023-07-24T14:35:55;4.75;;;3.20;;
74471;SDS011;62920;53.572;10.050;2023-07-24T14:38:21;6.60;;;2.88;;
74471;SDS011;62920;53.572;10.050;2023-07-24T14:40:46;5.13;;;3.20;;
74471;SDS011;62920;53.572;10.050;2023-07-24T14:43:12;4.93;;;3.30;;
74471;SDS011;62920;53.572;10.050;2023-07-24T14:45:37;4.90;;;2.83;;
74471;SDS011;62920;53.572;10.050;2023-07-24T14:48:03;5.45;;;3.40;;